»·PEaware :: N64946 KOTH-KOTH

N64946 :: KOTH-KOTH

FLIGHT INFORMATION

Flight Status: Arrived
Operator: Privately registered:
United States
More flights under this callsign
Pilot: Raphael S. (13144)
Aircraft: CESSNA 152 AEROBAT
(C152)
More flights by this aircraft type
Origin: KOTH North Bend Mun
United States
Destination: KOTH North Bend Mun
United States
More flights between these airports :: More routes between these airports
Route: +
File this flight plan on PilotEdge
Remarks:
Altitude:
(Current/Filed)
0ft
Speed:
(Current/Filed)
0kts
Departed: 14-Apr-18 01:57 PM
Arrived: 14-Apr-18 02:38 PM
Distance/Time
Traveled:
0nm/0:41
Distance/Time
To Go:
Arrived

Flight Plot

Page will automatically refresh every two minutes.

Flight plan parsing failed; only flown route is shown


Map Options




Map Legend


Flown Route
Filed Route
Departure Airport
Arrival Airport
Navaid (VOR, NDB)
Fix

Horizontal Profiles

Position Reports

Time Latitude Longitude Heading Altitude Ground
Speed
14-Apr-18 13:48 43.418145 -124.246332 331 20ft 7kts
14-Apr-18 13:49 43.419566 -124.245706 60 20ft 11kts
14-Apr-18 13:50 43.421347 -124.241377 62 20ft 10kts
14-Apr-18 13:51 43.421868 -124.240174 277 20ft 0kts
14-Apr-18 13:52 43.421868 -124.240175 277 20ft 0kts
14-Apr-18 13:53 43.421868 -124.240175 276 20ft 0kts
14-Apr-18 13:54 43.422076 -124.240641 343 20ft 0kts
14-Apr-18 13:55 43.422588 -124.241393 243 20ft 0kts
14-Apr-18 13:56 43.416593 -124.256725 244 486ft 73kts
14-Apr-18 13:57 43.423950 -124.274664 35 1200ft 71kts
14-Apr-18 13:58 43.436131 -124.247764 65 971ft 75kts
14-Apr-18 13:59 43.427614 -124.232242 194 378ft 70kts
14-Apr-18 14:00 43.417612 -124.253502 239 70ft 82kts
14-Apr-18 14:01 43.414518 -124.279835 306 1001ft 76kts
14-Apr-18 14:02 43.430808 -124.271089 53 1121ft 80kts
14-Apr-18 14:03 43.442377 -124.246023 64 846ft 64kts
14-Apr-18 14:04 43.434319 -124.227858 156 467ft 67kts
14-Apr-18 14:05 43.421366 -124.244379 244 29ft 66kts
14-Apr-18 14:06 43.411253 -124.270114 273 640ft 80kts
14-Apr-18 14:07 43.425327 -124.275337 59 1117ft 78kts
14-Apr-18 14:08 43.434229 -124.246465 63 997ft 61kts
14-Apr-18 14:09 43.429609 -124.227659 177 457ft 68kts
14-Apr-18 14:10 43.419696 -124.248558 238 20ft 56kts
14-Apr-18 14:11 43.413659 -124.274133 319 805ft 67kts
14-Apr-18 14:12 43.429339 -124.273073 45 1053ft 75kts
14-Apr-18 14:13 43.441307 -124.248519 60 1019ft 58kts
14-Apr-18 14:14 43.440900 -124.228434 151 559ft 68kts
14-Apr-18 14:15 43.425094 -124.235282 244 197ft 68kts
14-Apr-18 14:16 43.415794 -124.258133 242 217ft 79kts
14-Apr-18 14:17 43.416655 -124.283548 329 1048ft 83kts
14-Apr-18 14:18 43.434433 -124.268304 56 988ft 85kts
14-Apr-18 14:19 43.444133 -124.246620 57 859ft 62kts
14-Apr-18 14:20 43.435786 -124.230628 161 395ft 69kts
14-Apr-18 14:21 43.421649 -124.243663 242 36ft 69kts
14-Apr-18 14:22 43.411288 -124.267908 251 631ft 80kts
14-Apr-18 14:23 43.426102 -124.276720 58 946ft 82kts
14-Apr-18 14:24 43.436269 -124.248984 65 825ft 68kts
14-Apr-18 14:25 43.437016 -124.230334 139 446ft 69kts
14-Apr-18 14:26 43.423354 -124.239468 243 88ft 71kts
14-Apr-18 14:27 43.414131 -124.263422 247 526ft 80kts
14-Apr-18 14:28 43.425782 -124.279588 38 1033ft 74kts
14-Apr-18 14:29 43.438705 -124.253736 57 1021ft 82kts
14-Apr-18 14:30 43.438066 -124.232563 152 567ft 70kts
14-Apr-18 14:31 43.423169 -124.239996 239 69ft 66kts
14-Apr-18 14:32 43.413569 -124.262701 237 533ft 78kts
14-Apr-18 14:33 43.401962 -124.251619 77 1043ft 81kts
14-Apr-18 14:34 43.408186 -124.222207 72 982ft 69kts
14-Apr-18 14:35 43.420961 -124.216686 338 488ft 64kts
14-Apr-18 14:36 43.424731 -124.236080 241 101ft 71kts
14-Apr-18 14:37 43.417862 -124.251306 154 20ft 17kts
14-Apr-18 14:38 43.418269 -124.248895 54 20ft 14kts
14-Apr-18 14:39 43.417103 -124.245916 246 20ft 12kts
14-Apr-18 14:40 43.416579 -124.246666 60 20ft 0kts

Navigation Log

Ident Type
Flight plan parsing failed, navigation log unavailable